createdAt,value
2023-01-13T00:00:19.583Z,7.69
2023-01-13T00:01:19.596Z,7.69
2023-01-13T00:02:19.675Z,7.69
2023-01-13T00:03:19.645Z,7.68
2023-01-13T00:04:19.673Z,7.67
2023-01-13T00:05:19.716Z,7.67
2023-01-13T00:06:19.756Z,7.68
2023-01-13T00:07:19.789Z,7.68
2023-01-13T00:08:19.822Z,7.69
2023-01-13T00:09:19.856Z,7.68
2023-01-13T00:10:19.895Z,7.68
2023-01-13T00:11:19.953Z,7.67
2023-01-13T00:12:19.973Z,7.68
2023-01-13T00:13:20.006Z,7.68
2023-01-13T00:14:20.045Z,7.67
2023-01-13T00:15:20.083Z,7.67
2023-01-13T00:16:20.172Z,7.67
2023-01-13T00:17:20.156Z,7.67
2023-01-13T00:18:20.201Z,7.67
2023-01-13T00:19:20.238Z,7.66
2023-01-13T00:20:20.291Z,7.66
2023-01-13T00:21:20.321Z,7.66
2023-01-13T00:22:20.345Z,7.67
2023-01-13T00:23:20.379Z,7.65
2023-01-13T00:24:20.422Z,7.65
2023-01-13T00:25:20.460Z,7.65
2023-01-13T00:26:20.494Z,7.64
2023-01-13T00:27:20.559Z,7.65
2023-01-13T00:28:20.567Z,7.65
2023-01-13T00:29:20.610Z,7.63
2023-01-13T00:30:20.645Z,7.62
2023-01-13T00:31:20.798Z,7.62
2023-01-13T00:32:20.724Z,7.63
2023-01-13T00:33:20.766Z,7.63
2023-01-13T00:34:20.794Z,7.63
2023-01-13T00:35:20.836Z,7.64
2023-01-13T00:36:20.874Z,7.64
2023-01-13T00:37:20.927Z,7.65
2023-01-13T00:38:20.945Z,7.65
2023-01-13T00:39:20.973Z,7.65
2023-01-13T00:40:21.038Z,7.65
2023-01-13T00:41:21.058Z,7.64
2023-01-13T00:42:21.120Z,7.64
2023-01-13T00:43:21.124Z,7.64
2023-01-13T00:44:21.161Z,7.64
2023-01-13T00:45:21.207Z,7.63
2023-01-13T00:46:21.309Z,7.63
2023-01-13T00:47:21.297Z,7.63
2023-01-13T00:48:21.309Z,7.63
2023-01-13T00:49:21.346Z,7.63
2023-01-13T00:50:21.381Z,7.65
2023-01-13T00:51:21.424Z,7.65
2023-01-13T00:52:21.495Z,7.65
2023-01-13T00:53:21.496Z,7.64
2023-01-13T00:54:21.546Z,7.64
2023-01-13T00:55:21.575Z,7.64
2023-01-13T00:56:30.401Z,7.64
2023-01-13T00:57:21.646Z,7.63
2023-01-13T00:58:21.710Z,7.65
2023-01-13T00:59:21.707Z,7.63
2023-01-13T01:00:21.757Z,7.62
2023-01-13T01:01:21.924Z,7.62
2023-01-13T01:02:21.904Z,7.66
2023-01-13T01:03:21.926Z,7.68
2023-01-13T01:04:21.886Z,7.69
2023-01-13T01:05:21.930Z,7.69
2023-01-13T01:06:21.966Z,7.69
2023-01-13T01:07:22.002Z,7.69
2023-01-13T01:08:22.052Z,7.68
2023-01-13T01:09:22.088Z,7.67
2023-01-13T01:10:22.113Z,7.67
2023-01-13T01:11:22.159Z,7.67
2023-01-13T01:12:22.182Z,7.67
2023-01-13T01:13:22.219Z,7.67
2023-01-13T01:14:22.266Z,7.67
2023-01-13T01:15:22.294Z,7.67
2023-01-13T01:16:22.405Z,7.66
2023-01-13T01:17:22.370Z,7.65
2023-01-13T01:18:22.407Z,7.66
2023-01-13T01:19:22.462Z,7.66
2023-01-13T01:20:22.477Z,7.66
2023-01-13T01:21:22.528Z,7.64
2023-01-13T01:22:22.557Z,7.64
2023-01-13T01:23:22.592Z,7.64
2023-01-13T01:24:22.639Z,7.65
2023-01-13T01:25:22.673Z,7.64
2023-01-13T01:26:22.714Z,7.64
2023-01-13T01:27:22.735Z,7.63
2023-01-13T01:28:22.776Z,7.63
2023-01-13T01:29:22.826Z,7.65
2023-01-13T01:30:22.869Z,7.62
2023-01-13T01:31:22.927Z,7.64
2023-01-13T01:32:22.942Z,7.64
2023-01-13T01:33:22.972Z,7.64
2023-01-13T01:34:23.008Z,7.63
2023-01-13T01:35:23.048Z,7.63
2023-01-13T01:36:23.089Z,7.63
2023-01-13T01:37:23.124Z,7.62
2023-01-13T01:38:23.176Z,7.62
2023-01-13T01:39:23.199Z,7.61
2023-01-13T01:40:23.278Z,7.61
2023-01-13T01:41:23.283Z,7.61
2023-01-13T01:42:23.317Z,7.61
2023-01-13T01:43:23.351Z,7.59
2023-01-13T01:44:23.382Z,7.58
2023-01-13T01:45:23.430Z,7.58
2023-01-13T01:46:23.469Z,7.58
2023-01-13T01:47:23.494Z,7.59
2023-01-13T01:48:23.532Z,7.58
2023-01-13T01:49:23.567Z,7.58
2023-01-13T01:50:23.608Z,7.58
2023-01-13T01:51:23.638Z,7.58
2023-01-13T01:52:23.669Z,7.58
2023-01-13T01:53:23.700Z,7.58
2023-01-13T01:54:23.734Z,7.58
2023-01-13T01:55:23.768Z,7.58
2023-01-13T01:56:23.799Z,7.57
2023-01-13T01:57:23.838Z,7.57
2023-01-13T01:58:23.866Z,7.58
2023-01-13T01:59:23.906Z,7.57
2023-01-13T02:00:23.947Z,7.57
2023-01-13T02:01:24.044Z,7.56
2023-01-13T02:02:24.080Z,7.57
2023-01-13T02:03:24.049Z,7.56
2023-01-13T02:04:24.099Z,7.55
2023-01-13T02:05:24.128Z,7.55
2023-01-13T02:06:24.173Z,7.54
2023-01-13T02:07:24.276Z,7.54
2023-01-13T02:08:24.245Z,7.54
2023-01-13T02:09:24.286Z,7.55
2023-01-13T02:10:24.335Z,7.54
2023-01-13T02:11:24.358Z,7.54
2023-01-13T02:12:24.410Z,7.52
2023-01-13T02:13:24.432Z,7.55
2023-01-13T02:14:24.465Z,7.52
2023-01-13T02:15:24.496Z,7.54
2023-01-13T02:16:24.636Z,7.52
2023-01-13T02:17:24.575Z,7.52
2023-01-13T02:18:24.619Z,7.52
2023-01-13T02:19:24.637Z,7.52
2023-01-13T02:20:24.672Z,7.51
2023-01-13T02:21:24.718Z,7.52
2023-01-13T02:22:24.749Z,7.52
2023-01-13T02:23:24.780Z,7.52
2023-01-13T02:24:24.822Z,7.52
2023-01-13T02:25:24.861Z,7.52
2023-01-13T02:26:24.888Z,7.52
2023-01-13T02:27:24.924Z,7.52
2023-01-13T02:28:24.966Z,7.52
2023-01-13T02:29:25.013Z,7.52
2023-01-13T02:30:25.060Z,7.52
2023-01-13T02:31:25.142Z,7.52
2023-01-13T02:32:25.125Z,7.52
2023-01-13T02:33:25.161Z,7.51
2023-01-13T02:34:25.188Z,7.51
2023-01-13T02:35:25.269Z,7.51
2023-01-13T02:36:25.262Z,7.51
2023-01-13T02:37:25.297Z,7.49
2023-01-13T02:38:25.335Z,7.49
2023-01-13T02:39:25.366Z,7.48
2023-01-13T02:40:25.425Z,7.49
2023-01-13T02:41:25.442Z,7.49
2023-01-13T02:42:25.481Z,7.49
2023-01-13T02:43:25.511Z,7.49
2023-01-13T02:44:25.545Z,7.49
2023-01-13T02:45:25.671Z,7.51
2023-01-13T02:46:25.618Z,7.49
2023-01-13T02:47:25.663Z,7.49
2023-01-13T02:48:25.694Z,7.49
2023-01-13T02:49:25.733Z,7.49
2023-01-13T02:50:25.753Z,7.48
2023-01-13T02:51:25.780Z,7.49
2023-01-13T02:52:25.816Z,7.48
2023-01-13T02:53:25.860Z,7.47
2023-01-13T02:54:25.906Z,7.47
2023-01-13T02:55:25.930Z,7.47
2023-01-13T02:56:25.962Z,7.47
2023-01-13T02:57:26.008Z,7.47
2023-01-13T02:58:26.044Z,7.47
2023-01-13T02:59:26.070Z,7.47
2023-01-13T03:00:26.103Z,7.45
2023-01-13T03:01:26.354Z,7.45
2023-01-13T03:02:26.298Z,7.44
2023-01-13T03:03:26.210Z,7.43
2023-01-13T03:04:26.249Z,7.43
2023-01-13T03:05:26.276Z,7.44
2023-01-13T03:06:26.338Z,7.43
2023-01-13T03:07:26.346Z,7.43
2023-01-13T03:08:26.385Z,7.43
2023-01-13T03:09:26.422Z,7.4
2023-01-13T03:10:26.459Z,7.4
2023-01-13T03:11:26.508Z,7.4
2023-01-13T03:12:26.535Z,7.41
2023-01-13T03:13:26.585Z,7.41
2023-01-13T03:14:26.616Z,7.41
2023-01-13T03:15:26.654Z,7.41
2023-01-13T03:16:26.719Z,7.42
2023-01-13T03:17:26.728Z,7.41
2023-01-13T03:18:26.773Z,7.42
2023-01-13T03:19:26.788Z,7.42
2023-01-13T03:20:26.831Z,7.41
2023-01-13T03:21:26.859Z,7.41
2023-01-13T03:22:26.912Z,7.41
2023-01-13T03:23:26.935Z,7.41
2023-01-13T03:24:26.973Z,7.4
2023-01-13T03:25:27.027Z,7.4
2023-01-13T03:26:27.053Z,7.4
2023-01-13T03:27:27.087Z,7.4
2023-01-13T03:28:27.127Z,7.4
2023-01-13T03:29:27.165Z,7.39
2023-01-13T03:30:27.275Z,7.4
2023-01-13T03:31:27.235Z,7.39
2023-01-13T03:32:27.269Z,7.38
2023-01-13T03:33:27.303Z,7.38
2023-01-13T03:34:28.422Z,7.39
2023-01-13T03:35:27.396Z,7.39
2023-01-13T03:36:27.437Z,7.39
2023-01-13T03:37:27.527Z,7.38
2023-01-13T03:38:27.519Z,7.38
2023-01-13T03:39:27.555Z,7.38
2023-01-13T03:40:27.591Z,7.38
2023-01-13T03:41:27.630Z,7.41
2023-01-13T03:42:27.724Z,7.4
2023-01-13T03:43:27.701Z,7.4
2023-01-13T03:44:27.736Z,7.38
2023-01-13T03:45:27.769Z,7.4
2023-01-13T03:46:27.812Z,7.37
2023-01-13T03:47:27.843Z,7.37
2023-01-13T03:48:27.885Z,7.38
2023-01-13T03:49:27.917Z,7.38
2023-01-13T03:50:27.967Z,7.38
2023-01-13T03:51:28.002Z,7.38
2023-01-13T03:52:28.035Z,7.39
2023-01-13T03:53:28.067Z,7.4
2023-01-13T03:54:28.119Z,7.4
2023-01-13T03:55:28.133Z,7.39
2023-01-13T03:56:28.190Z,7.39
2023-01-13T03:57:28.225Z,7.4
2023-01-13T03:58:28.257Z,7.39
2023-01-13T03:59:28.306Z,7.39
2023-01-13T04:00:28.337Z,7.39
2023-01-13T04:01:28.491Z,7.39
2023-01-13T04:02:28.430Z,7.39
2023-01-13T04:03:28.497Z,7.38
2023-01-13T04:04:28.503Z,7.38
2023-01-13T04:05:28.549Z,7.38
2023-01-13T04:06:28.588Z,7.38
2023-01-13T04:07:28.640Z,7.38
2023-01-13T04:08:28.677Z,7.38
2023-01-13T04:09:28.700Z,7.38
2023-01-13T04:10:28.755Z,7.38
2023-01-13T04:11:28.785Z,7.38
2023-01-13T04:12:28.825Z,7.38
2023-01-13T04:13:28.856Z,7.38
2023-01-13T04:14:28.888Z,7.38
2023-01-13T04:15:28.985Z,7.38
2023-01-13T04:16:28.976Z,7.38
2023-01-13T04:17:29.005Z,7.38
2023-01-13T04:18:29.056Z,7.36
2023-01-13T04:19:29.083Z,7.36
2023-01-13T04:20:29.125Z,7.36
2023-01-13T04:21:29.162Z,7.37
2023-01-13T04:22:29.209Z,7.37
2023-01-13T04:23:29.252Z,7.35
2023-01-13T04:24:29.284Z,7.31
2023-01-13T04:25:29.322Z,7.31
2023-01-13T04:26:29.359Z,7.31
2023-01-13T04:27:29.389Z,7.3
2023-01-13T04:28:29.446Z,7.3
2023-01-13T04:29:29.475Z,7.31
2023-01-13T04:30:29.508Z,7.31
2023-01-13T04:31:29.559Z,7.29
2023-01-13T04:32:29.599Z,7.29
2023-01-13T04:33:29.642Z,7.3
2023-01-13T04:34:29.668Z,7.31
2023-01-13T04:35:29.699Z,7.31
2023-01-13T04:36:29.737Z,7.3
2023-01-13T04:37:29.803Z,7.31
2023-01-13T04:38:29.812Z,7.31
2023-01-13T04:39:29.841Z,7.31
2023-01-13T04:40:29.887Z,7.34
2023-01-13T04:41:29.914Z,7.34
2023-01-13T04:42:29.943Z,7.32
2023-01-13T04:43:29.980Z,7.32
2023-01-13T04:44:30.031Z,7.32
2023-01-13T04:45:30.065Z,7.33
2023-01-13T04:46:30.197Z,7.33
2023-01-13T04:47:30.138Z,7.36
2023-01-13T04:48:30.170Z,7.36
2023-01-13T04:49:30.204Z,7.36
2023-01-13T04:50:30.239Z,7.36
2023-01-13T04:51:30.274Z,7.36
2023-01-13T04:52:30.314Z,7.37
2023-01-13T04:53:30.349Z,7.35
2023-01-13T04:54:30.449Z,7.35
2023-01-13T04:55:30.416Z,7.34
2023-01-13T04:56:30.460Z,7.37
2023-01-13T04:57:30.506Z,7.37
2023-01-13T04:58:30.536Z,7.37
2023-01-13T04:59:30.599Z,7.37
2023-01-13T05:00:30.615Z,7.38
2023-01-13T05:01:30.714Z,7.38
2023-01-13T05:02:30.671Z,7.38
2023-01-13T05:03:30.720Z,7.38
2023-01-13T05:04:30.799Z,7.38
2023-01-13T05:05:30.821Z,7.38
2023-01-13T05:06:30.833Z,7.38
2023-01-13T05:07:30.871Z,7.4
2023-01-13T05:08:30.910Z,7.4
2023-01-13T05:09:30.949Z,7.43
2023-01-13T05:10:30.977Z,7.44
2023-01-13T05:11:31.025Z,7.45
2023-01-13T05:12:31.059Z,7.45
2023-01-13T05:13:31.095Z,7.45
2023-01-13T05:14:31.120Z,7.47
2023-01-13T05:15:31.156Z,7.47
2023-01-13T05:16:31.284Z,7.47
2023-01-13T05:17:31.226Z,7.47
2023-01-13T05:18:31.261Z,7.5
2023-01-13T05:19:31.310Z,7.49
2023-01-13T05:20:31.337Z,7.49
2023-01-13T05:21:31.377Z,7.49
2023-01-13T05:22:31.402Z,7.55
2023-01-13T05:23:31.443Z,7.56
2023-01-13T05:24:31.473Z,7.56
2023-01-13T05:25:31.522Z,7.56
2023-01-13T05:26:31.557Z,7.56
2023-01-13T05:27:31.589Z,7.56
2023-01-13T05:28:31.622Z,7.56
2023-01-13T05:29:31.659Z,7.56
2023-01-13T05:30:31.705Z,7.58
2023-01-13T05:31:31.754Z,7.58
2023-01-13T05:32:31.763Z,7.57
2023-01-13T05:33:33.137Z,7.58
2023-01-13T05:34:31.840Z,7.58
2023-01-13T05:35:31.927Z,7.61
2023-01-13T05:36:31.909Z,7.61
2023-01-13T05:37:31.933Z,7.6
2023-01-13T05:38:31.973Z,7.61
2023-01-13T05:39:32.000Z,7.61
2023-01-13T05:40:32.051Z,7.62
2023-01-13T05:41:32.088Z,7.62
2023-01-13T05:42:32.114Z,7.62
2023-01-13T05:43:32.165Z,7.62
2023-01-13T05:44:32.180Z,7.62
2023-01-13T05:45:32.240Z,7.63
2023-01-13T05:46:32.290Z,7.62
2023-01-13T05:47:32.302Z,7.64
2023-01-13T05:48:32.317Z,7.62
2023-01-13T05:49:32.351Z,7.62
2023-01-13T05:50:32.393Z,7.64
2023-01-13T05:51:32.451Z,7.64
2023-01-13T05:52:32.443Z,7.64
2023-01-13T05:53:32.484Z,7.63
2023-01-13T05:54:32.539Z,7.63
2023-01-13T05:55:32.560Z,7.63
2023-01-13T05:56:32.610Z,7.63
2023-01-13T05:57:32.634Z,7.62
2023-01-13T05:58:32.657Z,7.63
2023-01-13T05:59:32.699Z,7.63
2023-01-13T06:00:32.726Z,7.63
2023-01-13T06:01:32.874Z,7.62
2023-01-13T06:02:32.851Z,7.62
2023-01-13T06:03:32.829Z,7.62
2023-01-13T06:04:32.942Z,7.62
2023-01-13T06:05:32.920Z,7.62
2023-01-13T06:06:32.965Z,7.6
2023-01-13T06:07:33.011Z,7.6
2023-01-13T06:08:33.029Z,7.6
2023-01-13T06:09:33.047Z,7.57
2023-01-13T06:10:33.080Z,7.58
2023-01-13T06:11:33.112Z,7.56
2023-01-13T06:12:33.162Z,7.52
2023-01-13T06:13:33.244Z,7.52
2023-01-13T06:14:34.513Z,7.52
2023-01-13T06:15:33.300Z,7.52
2023-01-13T06:16:33.389Z,7.53
2023-01-13T06:17:33.330Z,7.52
2023-01-13T06:18:33.379Z,7.52
2023-01-13T06:19:33.396Z,7.51
2023-01-13T06:20:33.441Z,7.52
2023-01-13T06:21:33.496Z,7.55
2023-01-13T06:22:33.518Z,7.54
2023-01-13T06:23:33.556Z,7.54
2023-01-13T06:24:33.588Z,7.54
2023-01-13T06:25:33.630Z,7.53
2023-01-13T06:26:33.655Z,7.53
2023-01-13T06:27:33.695Z,7.53
2023-01-13T06:28:33.728Z,7.45
2023-01-13T06:29:33.762Z,7.45
2023-01-13T06:30:33.803Z,7.45
2023-01-13T06:31:33.892Z,7.44
2023-01-13T06:32:33.880Z,7.44
2023-01-13T06:33:33.913Z,7.44
2023-01-13T06:34:33.951Z,7.44
2023-01-13T06:35:33.987Z,7.44
2023-01-13T06:36:34.037Z,7.44
2023-01-13T06:37:34.052Z,7.43
2023-01-13T06:38:34.105Z,7.43
2023-01-13T06:39:34.152Z,7.43
2023-01-13T06:40:34.177Z,7.44
2023-01-13T06:41:34.223Z,7.44
2023-01-13T06:42:34.243Z,7.44
2023-01-13T06:43:34.290Z,7.43
2023-01-13T06:44:34.324Z,7.44
2023-01-13T06:45:34.378Z,7.43
2023-01-13T06:46:34.450Z,7.42
2023-01-13T06:47:34.433Z,7.44
2023-01-13T06:48:34.471Z,7.43
2023-01-13T06:49:34.517Z,7.42
2023-01-13T06:50:34.588Z,7.42
2023-01-13T06:51:34.584Z,7.42
2023-01-13T06:52:34.611Z,7.43
2023-01-13T06:53:34.643Z,7.42
2023-01-13T06:54:34.706Z,7.42
2023-01-13T06:55:34.704Z,7.43
2023-01-13T06:56:34.737Z,7.43
2023-01-13T06:57:34.803Z,7.42
2023-01-13T06:58:34.814Z,7.42
2023-01-13T06:59:34.847Z,7.43
2023-01-13T07:00:34.977Z,7.43
2023-01-13T07:01:35.094Z,7.43
2023-01-13T07:02:34.962Z,7.43
2023-01-13T07:03:34.999Z,7.44
2023-01-13T07:04:35.020Z,7.42
2023-01-13T07:05:35.058Z,7.43
2023-01-13T07:06:35.088Z,7.43
2023-01-13T07:07:35.121Z,7.43
2023-01-13T07:08:35.158Z,7.43
2023-01-13T07:09:35.192Z,7.45
2023-01-13T07:10:35.229Z,7.44
2023-01-13T07:11:35.263Z,7.42
2023-01-13T07:12:35.300Z,7.43
2023-01-13T07:13:35.352Z,7.43
2023-01-13T07:14:35.375Z,7.41
2023-01-13T07:15:35.437Z,7.4
2023-01-13T07:16:35.521Z,7.38
2023-01-13T07:17:35.485Z,7.37
2023-01-13T07:18:35.527Z,7.42
2023-01-13T07:19:35.556Z,7.41
2023-01-13T07:20:35.632Z,7.4
2023-01-13T07:21:35.631Z,7.4
2023-01-13T07:22:35.679Z,7.4
2023-01-13T07:23:35.749Z,7.4
2023-01-13T07:24:35.739Z,7.4
2023-01-13T07:25:35.799Z,7.39
2023-01-13T07:26:35.808Z,7.37
2023-01-13T07:27:35.839Z,7.38
2023-01-13T07:28:35.882Z,7.38
2023-01-13T07:29:35.915Z,7.38
2023-01-13T07:30:35.995Z,7.36
2023-01-13T07:31:36.014Z,7.36
2023-01-13T07:32:36.023Z,7.36
2023-01-13T07:33:36.057Z,7.35
2023-01-13T07:34:36.112Z,7.34
2023-01-13T07:35:36.137Z,7.33
2023-01-13T07:36:36.155Z,7.3
2023-01-13T07:37:36.195Z,7.27
2023-01-13T07:38:36.240Z,7.27
2023-01-13T07:39:36.270Z,7.28
2023-01-13T07:40:36.297Z,7.27
2023-01-13T07:41:36.330Z,7.24
2023-01-13T07:42:36.371Z,7.23
2023-01-13T07:43:36.402Z,7.22
2023-01-13T07:44:36.445Z,7.22
2023-01-13T07:45:36.513Z,7.21
2023-01-13T07:46:36.507Z,7.21
2023-01-13T07:47:36.541Z,7.21
2023-01-13T07:48:36.576Z,7.19
2023-01-13T07:49:36.621Z,7.17
2023-01-13T07:50:36.650Z,7.17
2023-01-13T07:51:36.688Z,7.17
2023-01-13T07:52:36.749Z,7.13
2023-01-13T07:53:36.768Z,7.13
2023-01-13T07:54:41.147Z,7.13
2023-01-13T07:55:36.833Z,7.13
2023-01-13T07:56:36.875Z,7.12
2023-01-13T07:57:36.901Z,7.11
2023-01-13T07:58:36.938Z,7.11
2023-01-13T07:59:37.002Z,7.11
2023-01-13T08:00:36.999Z,7.12
2023-01-13T08:01:37.209Z,7.1
2023-01-13T08:02:37.140Z,7.09
2023-01-13T08:03:37.121Z,7.13
2023-01-13T08:04:37.136Z,7.13
2023-01-13T08:05:37.181Z,7.13
2023-01-13T08:06:37.217Z,7.12
2023-01-13T08:07:37.258Z,7.11
2023-01-13T08:08:37.280Z,7.1
2023-01-13T08:09:37.313Z,7.09
2023-01-13T08:10:37.353Z,7.11
2023-01-13T08:11:37.395Z,7.16
2023-01-13T08:12:37.424Z,7.15
2023-01-13T08:13:37.493Z,7.15
2023-01-13T08:14:37.504Z,7.13
2023-01-13T08:15:37.539Z,7.13
2023-01-13T08:16:37.607Z,7.15
2023-01-13T08:17:37.610Z,7.15
2023-01-13T08:18:37.660Z,7.13
2023-01-13T08:19:37.670Z,7.13
2023-01-13T08:20:37.705Z,7.13
2023-01-13T08:21:37.728Z,7.13
2023-01-13T08:22:37.766Z,7.11
2023-01-13T08:23:37.800Z,7.11
2023-01-13T08:24:37.847Z,7.12
2023-01-13T08:25:37.854Z,7.13
2023-01-13T08:26:37.926Z,7.15
2023-01-13T08:27:37.933Z,7.15
2023-01-13T08:28:37.967Z,7.16
2023-01-13T08:29:38.013Z,7.16
2023-01-13T08:30:38.137Z,7.17
2023-01-13T08:31:38.068Z,7.17
2023-01-13T08:32:38.091Z,7.19
2023-01-13T08:33:38.125Z,7.19
2023-01-13T08:34:38.170Z,7.18
2023-01-13T08:35:38.216Z,7.18
2023-01-13T08:36:38.247Z,7.19
2023-01-13T08:37:38.281Z,7.19
2023-01-13T08:38:38.325Z,7.2
2023-01-13T08:39:38.357Z,7.21
2023-01-13T08:40:38.395Z,7.2
2023-01-13T08:41:38.440Z,7.17
2023-01-13T08:42:38.477Z,7.13
2023-01-13T08:43:38.551Z,7.14
2023-01-13T08:44:38.541Z,7.15
2023-01-13T08:45:38.578Z,7.15
2023-01-13T08:46:38.615Z,7.15
2023-01-13T08:47:38.645Z,7.15
2023-01-13T08:48:38.739Z,7.15
2023-01-13T08:49:38.718Z,7.15
2023-01-13T08:50:38.770Z,7.15
2023-01-13T08:51:38.803Z,7.15
2023-01-13T08:52:38.839Z,7.12
2023-01-13T08:53:38.887Z,7.12
2023-01-13T08:54:38.911Z,7.12
2023-01-13T08:55:38.958Z,7.11
2023-01-13T08:56:39.078Z,7.13
2023-01-13T08:57:39.034Z,7.12
2023-01-13T08:58:39.059Z,7.11
2023-01-13T08:59:39.103Z,7.14
2023-01-13T09:00:39.133Z,7.14
2023-01-13T09:01:39.293Z,7.13
2023-01-13T09:02:39.217Z,7.14
2023-01-13T09:03:39.252Z,7.14
2023-01-13T09:04:39.324Z,7.12
2023-01-13T09:05:39.344Z,7.1
2023-01-13T09:06:39.336Z,7.09
2023-01-13T09:07:39.373Z,7.09
2023-01-13T09:08:39.435Z,7.05
2023-01-13T09:09:39.448Z,7.04
2023-01-13T09:10:39.482Z,7.04
2023-01-13T09:11:39.540Z,7.05
2023-01-13T09:12:39.557Z,7.05
2023-01-13T09:13:39.601Z,7.05
2023-01-13T09:14:39.640Z,7.05
2023-01-13T09:15:39.821Z,7.03
2023-01-13T09:16:39.703Z,7.01
2023-01-13T09:17:39.739Z,7
2023-01-13T09:18:39.782Z,7
2023-01-13T09:19:39.808Z,7.01
2023-01-13T09:20:39.895Z,7
2023-01-13T09:21:39.891Z,6.99
2023-01-13T09:22:39.932Z,7.04
2023-01-13T09:23:39.943Z,7.04
2023-01-13T09:24:39.972Z,7.03
2023-01-13T09:25:40.050Z,7
2023-01-13T09:26:40.054Z,7.03
2023-01-13T09:27:40.090Z,7.02
2023-01-13T09:28:40.185Z,7.01
2023-01-13T09:29:40.146Z,7.01
2023-01-13T09:30:40.189Z,7
2023-01-13T09:31:41.782Z,6.99
2023-01-13T09:32:40.248Z,6.99
2023-01-13T09:33:40.282Z,6.98
2023-01-13T09:34:40.324Z,6.96
2023-01-13T09:35:40.388Z,6.94
2023-01-13T09:36:40.408Z,6.98
2023-01-13T09:37:40.432Z,7
2023-01-13T09:38:40.473Z,6.99
2023-01-13T09:39:40.491Z,6.94
2023-01-13T09:40:40.530Z,6.94
2023-01-13T09:41:40.569Z,6.94
2023-01-13T09:42:40.597Z,6.94
2023-01-13T09:43:40.637Z,6.96
2023-01-13T09:44:40.677Z,7.01
2023-01-13T09:45:40.703Z,7
2023-01-13T09:46:40.764Z,7.05
2023-01-13T09:47:40.760Z,7.1
2023-01-13T09:48:40.799Z,7.16
2023-01-13T09:49:40.836Z,7.22
2023-01-13T09:50:40.877Z,7.23
2023-01-13T09:51:41.055Z,7.26
2023-01-13T09:52:40.940Z,7.34
2023-01-13T09:53:40.968Z,7.36
2023-01-13T09:54:41.003Z,7.41
2023-01-13T09:55:41.057Z,7.46
2023-01-13T09:56:41.108Z,7.47
2023-01-13T09:57:41.118Z,7.47
2023-01-13T09:58:41.149Z,7.48
2023-01-13T09:59:41.213Z,7.51
2023-01-13T10:00:41.217Z,7.52
2023-01-13T10:01:41.258Z,7.51
2023-01-13T10:02:41.297Z,7.49
2023-01-13T10:03:41.354Z,7.5
2023-01-13T10:04:41.411Z,7.47
2023-01-13T10:05:41.379Z,7.45
2023-01-13T10:06:41.424Z,7.46
2023-01-13T10:07:41.461Z,7.46
2023-01-13T10:08:41.496Z,7.44
2023-01-13T10:09:41.525Z,7.42
2023-01-13T10:10:41.560Z,7.44
2023-01-13T10:11:41.593Z,7.44
2023-01-13T10:12:41.634Z,7.5
2023-01-13T10:13:41.654Z,7.49
2023-01-13T10:14:41.696Z,7.45
2023-01-13T10:15:41.750Z,7.44
2023-01-13T10:16:41.761Z,7.42
2023-01-13T10:17:41.833Z,7.4
2023-01-13T10:18:41.843Z,7.29
2023-01-13T10:19:41.878Z,7.3
2023-01-13T10:20:41.913Z,7.28
2023-01-13T10:21:41.947Z,7.26
2023-01-13T10:22:42.018Z,7.27
2023-01-13T10:23:42.021Z,7.24
2023-01-13T10:24:42.059Z,7.17
2023-01-13T10:25:42.095Z,7.21
2023-01-13T10:26:42.132Z,7.23
2023-01-13T10:27:42.166Z,7.22
2023-01-13T10:28:42.201Z,7.16
2023-01-13T10:29:42.240Z,7.14
2023-01-13T10:30:42.279Z,7.14
2023-01-13T10:31:42.317Z,7.15
2023-01-13T10:32:42.356Z,7.12
2023-01-13T10:33:42.380Z,7.08
2023-01-13T10:34:42.446Z,7.08
2023-01-13T10:35:42.451Z,7.07
2023-01-13T10:36:42.488Z,7.01
2023-01-13T10:37:42.540Z,6.99
2023-01-13T10:38:42.567Z,7.03
2023-01-13T10:39:42.645Z,7.02
2023-01-13T10:40:42.642Z,6.99
2023-01-13T10:41:42.667Z,6.94
2023-01-13T10:42:42.708Z,6.94
2023-01-13T10:43:42.746Z,6.97
2023-01-13T10:44:42.795Z,6.97
2023-01-13T10:45:42.832Z,6.92
2023-01-13T10:46:42.916Z,6.95
2023-01-13T10:47:42.889Z,6.93
2023-01-13T10:48:42.939Z,6.93
2023-01-13T10:49:42.963Z,6.98
2023-01-13T10:50:43.008Z,6.97
2023-01-13T10:51:43.051Z,6.94
2023-01-13T10:52:43.150Z,6.96
2023-01-13T10:53:43.126Z,6.95
2023-01-13T10:54:43.151Z,6.95
2023-01-13T10:55:43.173Z,6.95
2023-01-13T10:56:43.226Z,6.95
2023-01-13T10:57:43.240Z,6.96
2023-01-13T10:58:43.272Z,6.96
2023-01-13T10:59:43.306Z,6.96
2023-01-13T11:00:43.346Z,6.94
2023-01-13T11:01:43.552Z,6.97
2023-01-13T11:02:43.459Z,7
2023-01-13T11:03:43.458Z,7.07
2023-01-13T11:04:43.539Z,7.01
2023-01-13T11:05:43.527Z,7.01
2023-01-13T11:06:43.545Z,7.03
2023-01-13T11:07:43.585Z,7.04
2023-01-13T11:08:43.633Z,7.09
2023-01-13T11:09:43.654Z,7.05
2023-01-13T11:10:43.726Z,7.13
2023-01-13T11:11:43.737Z,7.11
2023-01-13T11:12:43.744Z,7.15
2023-01-13T11:13:43.777Z,7.14
2023-01-13T11:14:43.842Z,7.15
2023-01-13T11:15:43.915Z,7.13
2023-01-13T11:16:52.951Z,7.14
2023-01-13T11:17:43.919Z,7.19
2023-01-13T11:18:43.950Z,7.15
2023-01-13T11:19:43.987Z,7.2
2023-01-13T11:20:44.022Z,7.21
2023-01-13T11:21:44.063Z,7.17
2023-01-13T11:22:44.093Z,7.16
2023-01-13T11:23:44.154Z,7.15
2023-01-13T11:24:44.179Z,7.2
2023-01-13T11:25:44.208Z,7.16
2023-01-13T11:26:44.254Z,7.14
2023-01-13T11:27:44.291Z,7.11
2023-01-13T11:28:44.309Z,7.14
2023-01-13T11:29:44.365Z,7.15
2023-01-13T11:30:44.395Z,7.14
2023-01-13T11:31:44.479Z,7.14
2023-01-13T11:32:44.460Z,7.2
2023-01-13T11:33:44.494Z,7.21
2023-01-13T11:34:44.529Z,7.16
2023-01-13T11:35:44.561Z,7.18
2023-01-13T11:36:44.601Z,7.17
2023-01-13T11:37:44.655Z,7.17
2023-01-13T11:38:44.686Z,7.19
2023-01-13T11:39:44.725Z,7.2
2023-01-13T11:40:44.754Z,7.23
2023-01-13T11:41:44.791Z,7.23
2023-01-13T11:42:44.840Z,7.18
2023-01-13T11:43:44.837Z,7.2
2023-01-13T11:44:44.877Z,7.24
2023-01-13T11:45:44.910Z,7.25
2023-01-13T11:46:44.981Z,7.26
2023-01-13T11:47:44.988Z,7.28
2023-01-13T11:48:45.004Z,7.26
2023-01-13T11:49:45.032Z,7.26
2023-01-13T11:50:45.081Z,7.21
2023-01-13T11:51:45.127Z,7.17
2023-01-13T11:52:45.146Z,7.25
2023-01-13T11:53:45.185Z,7.26
2023-01-13T11:54:45.215Z,7.21
2023-01-13T11:55:45.246Z,7.28
2023-01-13T11:56:45.294Z,7.22
2023-01-13T11:57:45.328Z,7.21
2023-01-13T11:58:50.678Z,7.3
2023-01-13T11:59:45.388Z,7.25
2023-01-13T12:00:45.430Z,7.25
2023-01-13T12:01:45.506Z,7.25
2023-01-13T12:02:45.499Z,7.27
2023-01-13T12:03:45.510Z,7.24
2023-01-13T12:04:45.551Z,7.28
2023-01-13T12:05:45.590Z,7.32
2023-01-13T12:06:45.627Z,7.29
2023-01-13T12:07:45.656Z,7.36
2023-01-13T12:08:45.727Z,7.33
2023-01-13T12:09:45.745Z,7.25
2023-01-13T12:10:45.795Z,7.19
2023-01-13T12:11:45.792Z,7.21
2023-01-13T12:12:45.830Z,7.26
2023-01-13T12:13:45.893Z,7.23
2023-01-13T12:14:46.053Z,7.22
2023-01-13T12:15:45.943Z,7.21
2023-01-13T12:16:46.048Z,7.25
2023-01-13T12:17:46.012Z,7.28
2023-01-13T12:18:46.042Z,7.3
2023-01-13T12:19:46.105Z,7.3
2023-01-13T12:20:46.111Z,7.34
2023-01-13T12:21:46.156Z,7.41
2023-01-13T12:22:46.181Z,7.5
2023-01-13T12:23:46.227Z,7.49
2023-01-13T12:24:46.247Z,7.51
2023-01-13T12:25:46.284Z,7.54
2023-01-13T12:26:46.316Z,7.52
2023-01-13T12:27:47.439Z,7.52
2023-01-13T12:28:46.427Z,7.54
2023-01-13T12:29:46.426Z,7.59
2023-01-13T12:30:46.464Z,7.61
2023-01-13T12:31:46.555Z,7.67
2023-01-13T12:32:46.527Z,7.64
2023-01-13T12:33:46.567Z,7.68
2023-01-13T12:34:46.607Z,7.64
2023-01-13T12:35:46.651Z,7.71
2023-01-13T12:36:46.668Z,7.65
2023-01-13T12:37:46.699Z,7.7
2023-01-13T12:38:46.739Z,7.66
2023-01-13T12:39:46.791Z,7.57
2023-01-13T12:40:47.042Z,7.6
2023-01-13T12:41:46.850Z,7.56
2023-01-13T12:42:46.883Z,7.58
2023-01-13T12:43:46.912Z,7.48
2023-01-13T12:44:46.983Z,7.42
2023-01-13T12:45:47.048Z,7.35
2023-01-13T12:46:47.035Z,7.31
2023-01-13T12:47:47.071Z,7.34
2023-01-13T12:48:47.088Z,7.33
2023-01-13T12:49:47.124Z,7.28
2023-01-13T12:50:47.151Z,7.28
2023-01-13T12:51:47.187Z,7.25
2023-01-13T12:52:47.213Z,7.27
2023-01-13T12:53:47.296Z,7.23
2023-01-13T12:54:47.292Z,7.23
2023-01-13T12:55:47.328Z,7.24
2023-01-13T12:56:47.365Z,7.21
2023-01-13T12:57:47.419Z,7.2
2023-01-13T12:58:47.469Z,7.18
2023-01-13T12:59:47.480Z,7.17
2023-01-13T13:00:47.522Z,7.25
2023-01-13T13:01:47.671Z,7.31
2023-01-13T13:02:47.661Z,7.4
2023-01-13T13:03:47.615Z,7.37
2023-01-13T13:04:47.656Z,7.42
2023-01-13T13:05:47.673Z,7.45
2023-01-13T13:06:47.703Z,7.43
2023-01-13T13:07:47.727Z,7.44
2023-01-13T13:08:47.770Z,7.41
2023-01-13T13:09:47.801Z,7.3
2023-01-13T13:10:47.829Z,7.28
2023-01-13T13:11:47.863Z,7.28
2023-01-13T13:12:47.895Z,7.25
2023-01-13T13:13:47.945Z,7.21
2023-01-13T13:14:48.081Z,7.19
2023-01-13T13:15:48.008Z,7.19
2023-01-13T13:16:48.129Z,7.2
2023-01-13T13:17:48.073Z,7.17
2023-01-13T13:18:48.114Z,7.15
2023-01-13T13:19:48.153Z,7.14
2023-01-13T13:20:48.193Z,7.16
2023-01-13T13:21:48.210Z,7.14